sensor_id;sensor_type;location;lat;lon;timestamp;P1;durP1;ratioP1;P2;durP2;ratioP2
37495;SDS011;23346;52.088;4.746;2023-06-22T00:01:49;99.63;;;91.78;;
37495;SDS011;23346;52.088;4.746;2023-06-22T00:04:15;96.80;;;88.60;;
37495;SDS011;23346;52.088;4.746;2023-06-22T00:06:41;101.78;;;93.15;;
37495;SDS011;23346;52.088;4.746;2023-06-22T00:09:07;101.35;;;92.72;;
37495;SDS011;23346;52.088;4.746;2023-06-22T00:11:35;101.72;;;92.43;;
37495;SDS011;23346;52.088;4.746;2023-06-22T00:14:01;97.90;;;89.05;;
37495;SDS011;23346;52.088;4.746;2023-06-22T00:16:27;99.82;;;91.47;;
37495;SDS011;23346;52.088;4.746;2023-06-22T00:18:53;102.85;;;94.03;;
37495;SDS011;23346;52.088;4.746;2023-06-22T00:21:19;106.78;;;97.32;;
37495;SDS011;23346;52.088;4.746;2023-06-22T00:23:45;103.15;;;93.90;;
37495;SDS011;23346;52.088;4.746;2023-06-22T00:26:12;114.80;;;104.97;;
37495;SDS011;23346;52.088;4.746;2023-06-22T00:28:38;104.43;;;94.75;;
37495;SDS011;23346;52.088;4.746;2023-06-22T00:31:04;108.47;;;98.50;;
37495;SDS011;23346;52.088;4.746;2023-06-22T00:33:30;111.40;;;101.53;;
37495;SDS011;23346;52.088;4.746;2023-06-22T00:35:56;112.05;;;101.80;;
37495;SDS011;23346;52.088;4.746;2023-06-22T00:38:22;108.55;;;98.45;;
37495;SDS011;23346;52.088;4.746;2023-06-22T00:40:48;104.95;;;95.15;;
37495;SDS011;23346;52.088;4.746;2023-06-22T00:43:14;113.32;;;102.90;;
37495;SDS011;23346;52.088;4.746;2023-06-22T00:45:40;112.18;;;101.40;;
37495;SDS011;23346;52.088;4.746;2023-06-22T00:48:06;114.97;;;103.82;;
37495;SDS011;23346;52.088;4.746;2023-06-22T00:50:33;109.25;;;99.35;;
37495;SDS011;23346;52.088;4.746;2023-06-22T00:53:01;111.65;;;101.10;;
37495;SDS011;23346;52.088;4.746;2023-06-22T00:55:29;112.55;;;102.47;;
37495;SDS011;23346;52.088;4.746;2023-06-22T00:57:55;116.65;;;106.13;;
37495;SDS011;23346;52.088;4.746;2023-06-22T01:00:23;110.97;;;101.00;;
37495;SDS011;23346;52.088;4.746;2023-06-22T01:02:50;111.18;;;100.45;;
37495;SDS011;23346;52.088;4.746;2023-06-22T01:05:20;105.70;;;95.97;;
37495;SDS011;23346;52.088;4.746;2023-06-22T01:13:32;104.68;;;94.90;;
37495;SDS011;23346;52.088;4.746;2023-06-22T01:16:11;108.43;;;97.50;;
37495;SDS011;23346;52.088;4.746;2023-06-22T01:18:40;107.20;;;96.78;;
37495;SDS011;23346;52.088;4.746;2023-06-22T01:21:07;106.00;;;94.80;;
37495;SDS011;23346;52.088;4.746;2023-06-22T01:23:41;112.78;;;100.68;;
37495;SDS011;23346;52.088;4.746;2023-06-22T01:26:17;108.68;;;96.68;;
37495;SDS011;23346;52.088;4.746;2023-06-22T01:28:45;116.38;;;103.45;;
37495;SDS011;23346;52.088;4.746;2023-06-22T01:31:13;109.43;;;97.20;;
37495;SDS011;23346;52.088;4.746;2023-06-22T01:33:41;110.07;;;98.72;;
37495;SDS011;23346;52.088;4.746;2023-06-22T01:36:07;115.90;;;104.07;;
37495;SDS011;23346;52.088;4.746;2023-06-22T01:38:33;115.22;;;103.10;;
37495;SDS011;23346;52.088;4.746;2023-06-22T01:41:00;112.60;;;101.72;;
37495;SDS011;23346;52.088;4.746;2023-06-22T01:43:27;115.17;;;104.13;;
37495;SDS011;23346;52.088;4.746;2023-06-22T01:45:54;114.53;;;102.97;;
37495;SDS011;23346;52.088;4.746;2023-06-22T01:48:20;116.15;;;104.95;;
37495;SDS011;23346;52.088;4.746;2023-06-22T01:50:46;118.90;;;107.18;;
37495;SDS011;23346;52.088;4.746;2023-06-22T01:53:12;110.50;;;99.82;;
37495;SDS011;23346;52.088;4.746;2023-06-22T01:55:38;111.47;;;100.13;;
37495;SDS011;23346;52.088;4.746;2023-06-22T01:58:04;116.07;;;96.40;;
37495;SDS011;23346;52.088;4.746;2023-06-22T02:00:34;112.03;;;99.88;;
37495;SDS011;23346;52.088;4.746;2023-06-22T02:03:06;112.53;;;101.25;;
37495;SDS011;23346;52.088;4.746;2023-06-22T02:05:35;105.40;;;94.87;;
37495;SDS011;23346;52.088;4.746;2023-06-22T02:08:05;121.30;;;95.47;;
37495;SDS011;23346;52.088;4.746;2023-06-22T02:10:33;121.45;;;101.07;;
37495;SDS011;23346;52.088;4.746;2023-06-22T02:13:01;110.32;;;99.07;;
37495;SDS011;23346;52.088;4.746;2023-06-22T02:15:28;111.22;;;99.20;;
37495;SDS011;23346;52.088;4.746;2023-06-22T02:17:54;105.57;;;92.65;;
37495;SDS011;23346;52.088;4.746;2023-06-22T02:20:20;109.75;;;91.68;;
37495;SDS011;23346;52.088;4.746;2023-06-22T02:22:46;105.40;;;94.00;;
37495;SDS011;23346;52.088;4.746;2023-06-22T02:25:12;112.20;;;100.50;;
37495;SDS011;23346;52.088;4.746;2023-06-22T02:27:38;107.70;;;96.15;;
37495;SDS011;23346;52.088;4.746;2023-06-22T02:30:06;115.53;;;104.28;;
37495;SDS011;23346;52.088;4.746;2023-06-22T02:32:32;118.27;;;106.20;;
37495;SDS011;23346;52.088;4.746;2023-06-22T02:34:59;113.50;;;101.47;;
37495;SDS011;23346;52.088;4.746;2023-06-22T02:37:28;111.40;;;99.37;;
37495;SDS011;23346;52.088;4.746;2023-06-22T02:39:54;112.38;;;95.40;;
37495;SDS011;23346;52.088;4.746;2023-06-22T02:42:20;105.82;;;91.88;;
37495;SDS011;23346;52.088;4.746;2023-06-22T02:44:46;111.85;;;96.93;;
37495;SDS011;23346;52.088;4.746;2023-06-22T02:47:12;106.13;;;93.82;;
37495;SDS011;23346;52.088;4.746;2023-06-22T02:49:38;112.33;;;96.27;;
37495;SDS011;23346;52.088;4.746;2023-06-22T02:52:04;125.18;;;97.47;;
37495;SDS011;23346;52.088;4.746;2023-06-22T02:54:30;117.00;;;93.23;;
37495;SDS011;23346;52.088;4.746;2023-06-22T02:56:58;127.43;;;101.20;;
37495;SDS011;23346;52.088;4.746;2023-06-22T02:59:27;127.27;;;97.50;;
37495;SDS011;23346;52.088;4.746;2023-06-22T03:01:53;114.67;;;97.13;;
37495;SDS011;23346;52.088;4.746;2023-06-22T03:04:19;129.60;;;100.97;;
37495;SDS011;23346;52.088;4.746;2023-06-22T03:06:45;122.77;;;96.07;;
37495;SDS011;23346;52.088;4.746;2023-06-22T03:09:15;116.68;;;100.43;;
37495;SDS011;23346;52.088;4.746;2023-06-22T03:11:41;117.77;;;103.33;;
37495;SDS011;23346;52.088;4.746;2023-06-22T03:14:07;123.00;;;103.37;;
37495;SDS011;23346;52.088;4.746;2023-06-22T03:16:33;120.53;;;107.05;;
37495;SDS011;23346;52.088;4.746;2023-06-22T03:18:59;123.00;;;109.67;;
37495;SDS011;23346;52.088;4.746;2023-06-22T03:21:28;127.07;;;107.13;;
37495;SDS011;23346;52.088;4.746;2023-06-22T03:23:54;125.27;;;96.93;;
37495;SDS011;23346;52.088;4.746;2023-06-22T03:26:20;136.17;;;100.70;;
37495;SDS011;23346;52.088;4.746;2023-06-22T03:28:46;129.77;;;99.13;;
37495;SDS011;23346;52.088;4.746;2023-06-22T03:31:12;138.50;;;99.37;;
37495;SDS011;23346;52.088;4.746;2023-06-22T03:33:38;128.40;;;99.03;;
37495;SDS011;23346;52.088;4.746;2023-06-22T03:36:04;138.93;;;100.67;;
37495;SDS011;23346;52.088;4.746;2023-06-22T03:38:30;152.30;;;99.60;;
37495;SDS011;23346;52.088;4.746;2023-06-22T03:40:56;152.43;;;103.73;;
37495;SDS011;23346;52.088;4.746;2023-06-22T03:43:22;146.30;;;102.53;;
37495;SDS011;23346;52.088;4.746;2023-06-22T03:45:48;147.93;;;105.17;;
37495;SDS011;23346;52.088;4.746;2023-06-22T03:48:14;148.70;;;98.53;;
37495;SDS011;23346;52.088;4.746;2023-06-22T03:50:40;152.80;;;97.43;;
37495;SDS011;23346;52.088;4.746;2023-06-22T03:53:06;144.63;;;94.93;;
37495;SDS011;23346;52.088;4.746;2023-06-22T03:55:33;160.37;;;97.13;;
37495;SDS011;23346;52.088;4.746;2023-06-22T03:58:00;164.13;;;101.83;;
37495;SDS011;23346;52.088;4.746;2023-06-22T04:00:30;167.07;;;102.43;;
37495;SDS011;23346;52.088;4.746;2023-06-22T04:02:56;166.07;;;101.87;;
37495;SDS011;23346;52.088;4.746;2023-06-22T04:05:22;172.02;;;105.28;;
37495;SDS011;23346;52.088;4.746;2023-06-22T04:07:49;175.30;;;101.47;;
37495;SDS011;23346;52.088;4.746;2023-06-22T04:10:15;161.67;;;99.13;;
37495;SDS011;23346;52.088;4.746;2023-06-22T04:12:41;175.50;;;103.45;;
37495;SDS011;23346;52.088;4.746;2023-06-22T04:15:07;188.38;;;103.68;;
37495;SDS011;23346;52.088;4.746;2023-06-22T04:17:33;162.30;;;98.82;;
37495;SDS011;23346;52.088;4.746;2023-06-22T04:19:59;152.60;;;97.05;;
37495;SDS011;23346;52.088;4.746;2023-06-22T04:22:25;153.18;;;97.10;;
37495;SDS011;23346;52.088;4.746;2023-06-22T04:24:51;139.30;;;96.18;;
37495;SDS011;23346;52.088;4.746;2023-06-22T04:27:17;140.00;;;94.32;;
37495;SDS011;23346;52.088;4.746;2023-06-22T04:29:44;156.73;;;103.03;;
37495;SDS011;23346;52.088;4.746;2023-06-22T04:32:13;143.90;;;93.50;;
37495;SDS011;23346;52.088;4.746;2023-06-22T04:34:40;142.35;;;95.95;;
37495;SDS011;23346;52.088;4.746;2023-06-22T04:37:06;139.15;;;91.80;;
37495;SDS011;23346;52.088;4.746;2023-06-22T04:39:32;128.60;;;92.13;;
37495;SDS011;23346;52.088;4.746;2023-06-22T04:41:57;145.02;;;90.85;;
37495;SDS011;23346;52.088;4.746;2023-06-22T04:44:26;139.32;;;86.43;;
37495;SDS011;23346;52.088;4.746;2023-06-22T04:46:54;151.70;;;86.40;;
37495;SDS011;23346;52.088;4.746;2023-06-22T04:49:25;137.20;;;84.50;;
37495;SDS011;23346;52.088;4.746;2023-06-22T04:51:57;140.52;;;94.38;;
37495;SDS011;23346;52.088;4.746;2023-06-22T04:54:23;151.05;;;95.13;;
37495;SDS011;23346;52.088;4.746;2023-06-22T04:56:49;147.48;;;95.55;;
37495;SDS011;23346;52.088;4.746;2023-06-22T04:59:22;155.13;;;95.07;;
37495;SDS011;23346;52.088;4.746;2023-06-22T05:01:54;160.32;;;96.18;;
37495;SDS011;23346;52.088;4.746;2023-06-22T05:04:21;163.73;;;89.13;;
37495;SDS011;23346;52.088;4.746;2023-06-22T05:06:48;155.55;;;95.13;;
37495;SDS011;23346;52.088;4.746;2023-06-22T05:09:14;160.88;;;94.13;;
37495;SDS011;23346;52.088;4.746;2023-06-22T05:11:40;156.20;;;91.07;;
37495;SDS011;23346;52.088;4.746;2023-06-22T05:14:06;143.18;;;88.88;;
37495;SDS011;23346;52.088;4.746;2023-06-22T05:16:32;142.70;;;92.68;;
37495;SDS011;23346;52.088;4.746;2023-06-22T05:18:58;146.85;;;89.45;;
37495;SDS011;23346;52.088;4.746;2023-06-22T05:21:25;156.02;;;92.20;;
37495;SDS011;23346;52.088;4.746;2023-06-22T05:23:52;152.85;;;92.55;;
37495;SDS011;23346;52.088;4.746;2023-06-22T05:26:18;149.48;;;96.32;;
37495;SDS011;23346;52.088;4.746;2023-06-22T05:28:44;158.77;;;95.95;;
37495;SDS011;23346;52.088;4.746;2023-06-22T05:31:13;141.43;;;93.65;;
37495;SDS011;23346;52.088;4.746;2023-06-22T05:33:40;147.73;;;94.07;;
37495;SDS011;23346;52.088;4.746;2023-06-22T05:36:05;149.00;;;95.05;;
37495;SDS011;23346;52.088;4.746;2023-06-22T05:38:32;135.50;;;95.55;;
37495;SDS011;23346;52.088;4.746;2023-06-22T05:40:58;133.00;;;90.30;;
37495;SDS011;23346;52.088;4.746;2023-06-22T05:43:23;134.60;;;94.97;;
37495;SDS011;23346;52.088;4.746;2023-06-22T05:45:49;137.90;;;95.50;;
37495;SDS011;23346;52.088;4.746;2023-06-22T05:48:15;135.50;;;94.35;;
37495;SDS011;23346;52.088;4.746;2023-06-22T05:50:42;132.40;;;92.03;;
37495;SDS011;23346;52.088;4.746;2023-06-22T05:53:07;126.35;;;91.85;;
37495;SDS011;23346;52.088;4.746;2023-06-22T05:55:33;144.93;;;97.28;;
37495;SDS011;23346;52.088;4.746;2023-06-22T05:57:59;126.97;;;89.75;;
37495;SDS011;23346;52.088;4.746;2023-06-22T06:00:25;136.07;;;101.18;;
37495;SDS011;23346;52.088;4.746;2023-06-22T06:02:51;148.13;;;115.43;;
37495;SDS011;23346;52.088;4.746;2023-06-22T06:05:17;157.75;;;118.82;;
37495;SDS011;23346;52.088;4.746;2023-06-22T06:07:44;147.50;;;105.82;;
37495;SDS011;23346;52.088;4.746;2023-06-22T06:10:11;156.23;;;103.00;;
37495;SDS011;23346;52.088;4.746;2023-06-22T06:12:37;162.40;;;97.93;;
37495;SDS011;23346;52.088;4.746;2023-06-22T06:15:03;160.00;;;107.40;;
37495;SDS011;23346;52.088;4.746;2023-06-22T06:17:29;157.45;;;103.05;;
37495;SDS011;23346;52.088;4.746;2023-06-22T06:19:55;165.20;;;101.47;;
37495;SDS011;23346;52.088;4.746;2023-06-22T06:22:21;164.60;;;107.40;;
37495;SDS011;23346;52.088;4.746;2023-06-22T06:24:48;175.32;;;106.45;;
37495;SDS011;23346;52.088;4.746;2023-06-22T06:27:14;181.25;;;106.45;;
37495;SDS011;23346;52.088;4.746;2023-06-22T06:29:43;172.43;;;108.13;;
37495;SDS011;23346;52.088;4.746;2023-06-22T06:32:10;164.27;;;102.78;;
37495;SDS011;23346;52.088;4.746;2023-06-22T06:34:37;174.57;;;109.90;;
37495;SDS011;23346;52.088;4.746;2023-06-22T06:37:03;163.90;;;104.68;;
37495;SDS011;23346;52.088;4.746;2023-06-22T06:39:29;166.40;;;108.15;;
37495;SDS011;23346;52.088;4.746;2023-06-22T06:41:55;156.10;;;105.88;;
37495;SDS011;23346;52.088;4.746;2023-06-22T06:44:21;160.60;;;109.88;;
37495;SDS011;23346;52.088;4.746;2023-06-22T06:46:47;145.27;;;104.57;;
37495;SDS011;23346;52.088;4.746;2023-06-22T06:49:13;129.43;;;100.50;;
37495;SDS011;23346;52.088;4.746;2023-06-22T06:51:38;110.07;;;95.72;;
37495;SDS011;23346;52.088;4.746;2023-06-22T06:54:04;99.13;;;90.10;;
37495;SDS011;23346;52.088;4.746;2023-06-22T06:56:30;86.30;;;78.25;;
37495;SDS011;23346;52.088;4.746;2023-06-22T06:58:58;72.65;;;66.53;;
37495;SDS011;23346;52.088;4.746;2023-06-22T07:01:24;73.38;;;67.55;;
37495;SDS011;23346;52.088;4.746;2023-06-22T07:03:50;81.47;;;75.25;;
37495;SDS011;23346;52.088;4.746;2023-06-22T07:06:16;89.35;;;83.18;;
37495;SDS011;23346;52.088;4.746;2023-06-22T07:08:42;88.70;;;82.75;;
37495;SDS011;23346;52.088;4.746;2023-06-22T07:11:08;87.38;;;81.47;;
37495;SDS011;23346;52.088;4.746;2023-06-22T07:13:34;82.28;;;76.53;;
37495;SDS011;23346;52.088;4.746;2023-06-22T07:16:00;82.75;;;77.53;;
37495;SDS011;23346;52.088;4.746;2023-06-22T07:18:26;79.97;;;75.10;;
37495;SDS011;23346;52.088;4.746;2023-06-22T07:20:52;78.47;;;73.30;;
37495;SDS011;23346;52.088;4.746;2023-06-22T07:23:18;72.90;;;67.90;;
37495;SDS011;23346;52.088;4.746;2023-06-22T07:25:44;69.50;;;64.68;;
37495;SDS011;23346;52.088;4.746;2023-06-22T07:28:10;74.93;;;70.45;;
37495;SDS011;23346;52.088;4.746;2023-06-22T07:30:36;70.15;;;65.75;;
37495;SDS011;23346;52.088;4.746;2023-06-22T07:33:02;65.43;;;61.47;;
37495;SDS011;23346;52.088;4.746;2023-06-22T07:35:32;70.05;;;65.68;;
37495;SDS011;23346;52.088;4.746;2023-06-22T07:37:58;63.00;;;58.90;;
37495;SDS011;23346;52.088;4.746;2023-06-22T07:40:25;60.33;;;56.38;;
37495;SDS011;23346;52.088;4.746;2023-06-22T07:42:51;64.80;;;60.50;;
37495;SDS011;23346;52.088;4.746;2023-06-22T07:45:18;61.78;;;57.70;;
37495;SDS011;23346;52.088;4.746;2023-06-22T07:47:44;58.25;;;54.55;;
37495;SDS011;23346;52.088;4.746;2023-06-22T07:50:10;63.05;;;59.05;;
37495;SDS011;23346;52.088;4.746;2023-06-22T07:52:36;66.03;;;61.38;;
37495;SDS011;23346;52.088;4.746;2023-06-22T07:55:02;61.13;;;57.22;;
37495;SDS011;23346;52.088;4.746;2023-06-22T07:57:28;63.05;;;58.90;;
37495;SDS011;23346;52.088;4.746;2023-06-22T07:59:59;67.97;;;63.70;;
37495;SDS011;23346;52.088;4.746;2023-06-22T08:02:25;62.15;;;57.97;;
37495;SDS011;23346;52.088;4.746;2023-06-22T08:04:51;72.10;;;67.55;;
37495;SDS011;23346;52.088;4.746;2023-06-22T08:07:17;61.58;;;57.17;;
37495;SDS011;23346;52.088;4.746;2023-06-22T08:09:48;66.82;;;62.58;;
37495;SDS011;23346;52.088;4.746;2023-06-22T08:12:14;58.28;;;54.38;;
37495;SDS011;23346;52.088;4.746;2023-06-22T08:14:41;61.28;;;57.08;;
37495;SDS011;23346;52.088;4.746;2023-06-22T08:17:08;62.75;;;58.53;;
37495;SDS011;23346;52.088;4.746;2023-06-22T08:19:34;62.83;;;58.17;;
37495;SDS011;23346;52.088;4.746;2023-06-22T08:22:00;66.55;;;62.03;;
37495;SDS011;23346;52.088;4.746;2023-06-22T08:24:26;61.85;;;57.55;;
37495;SDS011;23346;52.088;4.746;2023-06-22T08:26:55;59.45;;;54.40;;
37495;SDS011;23346;52.088;4.746;2023-06-22T08:29:21;58.08;;;54.28;;
37495;SDS011;23346;52.088;4.746;2023-06-22T08:31:47;63.30;;;58.75;;
37495;SDS011;23346;52.088;4.746;2023-06-22T08:34:13;58.67;;;54.38;;
37495;SDS011;23346;52.088;4.746;2023-06-22T08:36:39;61.72;;;57.08;;
37495;SDS011;23346;52.088;4.746;2023-06-22T08:39:09;58.40;;;54.33;;
37495;SDS011;23346;52.088;4.746;2023-06-22T08:41:35;58.33;;;54.15;;
37495;SDS011;23346;52.088;4.746;2023-06-22T08:44:01;54.95;;;50.83;;
37495;SDS011;23346;52.088;4.746;2023-06-22T08:46:28;59.38;;;55.60;;
37495;SDS011;23346;52.088;4.746;2023-06-22T08:48:58;51.35;;;48.03;;
37495;SDS011;23346;52.088;4.746;2023-06-22T08:51:24;53.90;;;49.90;;
37495;SDS011;23346;52.088;4.746;2023-06-22T08:53:50;51.15;;;47.70;;
37495;SDS011;23346;52.088;4.746;2023-06-22T08:56:16;52.88;;;49.35;;
37495;SDS011;23346;52.088;4.746;2023-06-22T08:58:43;45.13;;;42.20;;
37495;SDS011;23346;52.088;4.746;2023-06-22T09:01:09;43.40;;;40.58;;
37495;SDS011;23346;52.088;4.746;2023-06-22T09:03:35;47.58;;;44.20;;
37495;SDS011;23346;52.088;4.746;2023-06-22T09:06:02;44.20;;;41.15;;
37495;SDS011;23346;52.088;4.746;2023-06-22T09:08:28;42.55;;;39.42;;
37495;SDS011;23346;52.088;4.746;2023-06-22T09:10:54;44.70;;;41.78;;
37495;SDS011;23346;52.088;4.746;2023-06-22T09:13:20;47.42;;;44.38;;
37495;SDS011;23346;52.088;4.746;2023-06-22T09:15:47;59.85;;;55.83;;
37495;SDS011;23346;52.088;4.746;2023-06-22T09:18:13;47.90;;;44.83;;
37495;SDS011;23346;52.088;4.746;2023-06-22T09:20:39;50.40;;;47.30;;
37495;SDS011;23346;52.088;4.746;2023-06-22T09:23:05;52.60;;;49.10;;
37495;SDS011;23346;52.088;4.746;2023-06-22T09:25:31;52.63;;;49.30;;
37495;SDS011;23346;52.088;4.746;2023-06-22T09:27:57;56.88;;;53.10;;
37495;SDS011;23346;52.088;4.746;2023-06-22T09:30:23;54.45;;;50.95;;
37495;SDS011;23346;52.088;4.746;2023-06-22T09:32:49;51.00;;;47.60;;
37495;SDS011;23346;52.088;4.746;2023-06-22T09:35:15;54.55;;;51.15;;
37495;SDS011;23346;52.088;4.746;2023-06-22T09:37:41;52.17;;;48.40;;
37495;SDS011;23346;52.088;4.746;2023-06-22T09:40:07;51.47;;;47.97;;
37495;SDS011;23346;52.088;4.746;2023-06-22T09:42:37;56.85;;;53.20;;
37495;SDS011;23346;52.088;4.746;2023-06-22T09:45:04;57.67;;;53.58;;
37495;SDS011;23346;52.088;4.746;2023-06-22T09:47:32;53.50;;;50.05;;
37495;SDS011;23346;52.088;4.746;2023-06-22T09:49:58;56.22;;;52.40;;
37495;SDS011;23346;52.088;4.746;2023-06-22T09:52:24;56.33;;;52.50;;
37495;SDS011;23346;52.088;4.746;2023-06-22T09:54:50;65.55;;;61.55;;
37495;SDS011;23346;52.088;4.746;2023-06-22T09:57:16;54.97;;;51.38;;
37495;SDS011;23346;52.088;4.746;2023-06-22T09:59:42;56.10;;;52.45;;
37495;SDS011;23346;52.088;4.746;2023-06-22T10:02:08;55.97;;;52.00;;
37495;SDS011;23346;52.088;4.746;2023-06-22T10:04:34;57.17;;;52.78;;
37495;SDS011;23346;52.088;4.746;2023-06-22T10:07:01;56.90;;;52.90;;
37495;SDS011;23346;52.088;4.746;2023-06-22T10:09:27;61.05;;;56.83;;
37495;SDS011;23346;52.088;4.746;2023-06-22T10:11:53;59.17;;;55.08;;
37495;SDS011;23346;52.088;4.746;2023-06-22T10:14:19;55.72;;;52.28;;
37495;SDS011;23346;52.088;4.746;2023-06-22T10:16:45;60.33;;;56.15;;
37495;SDS011;23346;52.088;4.746;2023-06-22T10:19:11;60.22;;;56.35;;
37495;SDS011;23346;52.088;4.746;2023-06-22T10:21:37;57.53;;;53.75;;
37495;SDS011;23346;52.088;4.746;2023-06-22T10:24:03;59.00;;;54.80;;
37495;SDS011;23346;52.088;4.746;2023-06-22T10:26:34;57.22;;;53.53;;
37495;SDS011;23346;52.088;4.746;2023-06-22T10:29:00;56.58;;;52.80;;
37495;SDS011;23346;52.088;4.746;2023-06-22T10:31:26;62.10;;;58.08;;
37495;SDS011;23346;52.088;4.746;2023-06-22T10:33:53;55.22;;;51.58;;
37495;SDS011;23346;52.088;4.746;2023-06-22T10:36:19;58.17;;;54.38;;
37495;SDS011;23346;52.088;4.746;2023-06-22T10:38:45;57.75;;;53.50;;
37495;SDS011;23346;52.088;4.746;2023-06-22T10:41:12;57.90;;;53.92;;
37495;SDS011;23346;52.088;4.746;2023-06-22T10:43:38;57.30;;;53.58;;
37495;SDS011;23346;52.088;4.746;2023-06-22T10:46:04;56.25;;;52.55;;
37495;SDS011;23346;52.088;4.746;2023-06-22T10:48:30;55.45;;;51.53;;
37495;SDS011;23346;52.088;4.746;2023-06-22T10:50:56;58.65;;;55.30;;
37495;SDS011;23346;52.088;4.746;2023-06-22T10:53:22;54.90;;;51.42;;
37495;SDS011;23346;52.088;4.746;2023-06-22T10:55:48;53.63;;;50.03;;
37495;SDS011;23346;52.088;4.746;2023-06-22T10:58:14;58.50;;;54.92;;
37495;SDS011;23346;52.088;4.746;2023-06-22T11:00:40;58.10;;;54.75;;
37495;SDS011;23346;52.088;4.746;2023-06-22T11:03:06;54.33;;;50.95;;
37495;SDS011;23346;52.088;4.746;2023-06-22T11:05:32;59.00;;;55.15;;
37495;SDS011;23346;52.088;4.746;2023-06-22T11:07:57;64.40;;;60.03;;
37495;SDS011;23346;52.088;4.746;2023-06-22T11:10:24;68.80;;;64.25;;
37495;SDS011;23346;52.088;4.746;2023-06-22T11:12:51;60.45;;;56.15;;
37495;SDS011;23346;52.088;4.746;2023-06-22T11:15:18;63.35;;;58.85;;
37495;SDS011;23346;52.088;4.746;2023-06-22T11:17:44;64.57;;;59.85;;
37495;SDS011;23346;52.088;4.746;2023-06-22T11:20:10;65.97;;;61.47;;
37495;SDS011;23346;52.088;4.746;2023-06-22T11:22:37;65.45;;;60.85;;
37495;SDS011;23346;52.088;4.746;2023-06-22T11:25:04;62.08;;;57.50;;
37495;SDS011;23346;52.088;4.746;2023-06-22T11:27:30;61.53;;;57.40;;
37495;SDS011;23346;52.088;4.746;2023-06-22T11:29:56;60.08;;;55.65;;
37495;SDS011;23346;52.088;4.746;2023-06-22T11:32:22;62.35;;;57.95;;
37495;SDS011;23346;52.088;4.746;2023-06-22T11:34:48;61.45;;;57.25;;
37495;SDS011;23346;52.088;4.746;2023-06-22T11:37:14;61.67;;;56.67;;
37495;SDS011;23346;52.088;4.746;2023-06-22T11:39:40;62.35;;;58.20;;
37495;SDS011;23346;52.088;4.746;2023-06-22T11:42:06;64.90;;;60.50;;
37495;SDS011;23346;52.088;4.746;2023-06-22T11:44:33;64.30;;;59.72;;
37495;SDS011;23346;52.088;4.746;2023-06-22T11:46:59;69.90;;;65.07;;
37495;SDS011;23346;52.088;4.746;2023-06-22T11:49:26;63.75;;;58.85;;
37495;SDS011;23346;52.088;4.746;2023-06-22T11:51:52;60.95;;;56.60;;
37495;SDS011;23346;52.088;4.746;2023-06-22T11:54:18;63.63;;;58.65;;
37495;SDS011;23346;52.088;4.746;2023-06-22T11:56:44;61.92;;;57.33;;
37495;SDS011;23346;52.088;4.746;2023-06-22T11:59:10;64.10;;;59.28;;
37495;SDS011;23346;52.088;4.746;2023-06-22T12:01:36;68.45;;;63.15;;
37495;SDS011;23346;52.088;4.746;2023-06-22T12:04:02;68.07;;;62.75;;
37495;SDS011;23346;52.088;4.746;2023-06-22T12:06:30;71.47;;;65.57;;
37495;SDS011;23346;52.088;4.746;2023-06-22T12:08:57;64.55;;;59.45;;
37495;SDS011;23346;52.088;4.746;2023-06-22T12:11:23;77.40;;;71.32;;
37495;SDS011;23346;52.088;4.746;2023-06-22T12:13:48;67.95;;;62.53;;
37495;SDS011;23346;52.088;4.746;2023-06-22T12:16:14;70.78;;;65.30;;
37495;SDS011;23346;52.088;4.746;2023-06-22T12:18:40;65.72;;;60.47;;
37495;SDS011;23346;52.088;4.746;2023-06-22T12:21:06;68.22;;;63.03;;
37495;SDS011;23346;52.088;4.746;2023-06-22T12:23:32;67.07;;;61.92;;
37495;SDS011;23346;52.088;4.746;2023-06-22T12:25:58;64.95;;;59.92;;
37495;SDS011;23346;52.088;4.746;2023-06-22T12:28:26;69.38;;;63.90;;
37495;SDS011;23346;52.088;4.746;2023-06-22T12:30:52;72.93;;;66.78;;
37495;SDS011;23346;52.088;4.746;2023-06-22T12:33:18;68.32;;;62.20;;
37495;SDS011;23346;52.088;4.746;2023-06-22T12:35:45;70.05;;;64.30;;
37495;SDS011;23346;52.088;4.746;2023-06-22T12:38:13;68.43;;;62.45;;
37495;SDS011;23346;52.088;4.746;2023-06-22T12:40:39;70.07;;;64.22;;
37495;SDS011;23346;52.088;4.746;2023-06-22T12:43:05;69.22;;;63.28;;
37495;SDS011;23346;52.088;4.746;2023-06-22T12:45:32;66.20;;;61.08;;
37495;SDS011;23346;52.088;4.746;2023-06-22T12:47:59;71.03;;;65.25;;
37495;SDS011;23346;52.088;4.746;2023-06-22T12:50:25;72.25;;;65.63;;
37495;SDS011;23346;52.088;4.746;2023-06-22T12:52:51;72.55;;;66.13;;
37495;SDS011;23346;52.088;4.746;2023-06-22T12:55:17;72.90;;;66.70;;
37495;SDS011;23346;52.088;4.746;2023-06-22T12:57:43;69.22;;;63.63;;
37495;SDS011;23346;52.088;4.746;2023-06-22T13:00:09;66.45;;;60.78;;
37495;SDS011;23346;52.088;4.746;2023-06-22T13:02:36;67.43;;;61.83;;
37495;SDS011;23346;52.088;4.746;2023-06-22T13:05:02;63.42;;;58.03;;
37495;SDS011;23346;52.088;4.746;2023-06-22T13:07:30;64.53;;;59.13;;
37495;SDS011;23346;52.088;4.746;2023-06-22T13:09:56;58.72;;;53.58;;
37495;SDS011;23346;52.088;4.746;2023-06-22T13:12:22;32.53;;;30.70;;
37495;SDS011;23346;52.088;4.746;2023-06-22T13:14:48;33.78;;;31.10;;
37495;SDS011;23346;52.088;4.746;2023-06-22T13:17:14;33.88;;;31.35;;
37495;SDS011;23346;52.088;4.746;2023-06-22T13:19:40;34.83;;;33.03;;
37495;SDS011;23346;52.088;4.746;2023-06-22T13:24:51;32.30;;;30.27;;
37495;SDS011;23346;52.088;4.746;2023-06-22T13:27:17;28.38;;;26.98;;
37495;SDS011;23346;52.088;4.746;2023-06-22T13:29:43;31.10;;;29.60;;
37495;SDS011;23346;52.088;4.746;2023-06-22T13:32:09;32.65;;;31.00;;
37495;SDS011;23346;52.088;4.746;2023-06-22T13:34:35;33.55;;;31.15;;
37495;SDS011;23346;52.088;4.746;2023-06-22T13:37:00;35.83;;;33.95;;
37495;SDS011;23346;52.088;4.746;2023-06-22T13:39:26;32.88;;;31.20;;
37495;SDS011;23346;52.088;4.746;2023-06-22T13:41:52;33.03;;;31.38;;
37495;SDS011;23346;52.088;4.746;2023-06-22T13:44:18;38.33;;;35.53;;
37495;SDS011;23346;52.088;4.746;2023-06-22T13:46:46;32.15;;;30.65;;
37495;SDS011;23346;52.088;4.746;2023-06-22T13:49:12;34.72;;;33.15;;
37495;SDS011;23346;52.088;4.746;2023-06-22T13:51:38;36.58;;;34.78;;
37495;SDS011;23346;52.088;4.746;2023-06-22T13:54:04;36.55;;;34.28;;
37495;SDS011;23346;52.088;4.746;2023-06-22T13:56:30;37.20;;;35.38;;
37495;SDS011;23346;52.088;4.746;2023-06-22T13:58:56;39.95;;;38.00;;
37495;SDS011;23346;52.088;4.746;2023-06-22T14:01:21;30.40;;;29.00;;
37495;SDS011;23346;52.088;4.746;2023-06-22T14:03:47;32.90;;;31.40;;
37495;SDS011;23346;52.088;4.746;2023-06-22T14:06:14;42.45;;;40.42;;
37495;SDS011;23346;52.088;4.746;2023-06-22T14:08:40;34.90;;;33.10;;
37495;SDS011;23346;52.088;4.746;2023-06-22T14:11:05;36.38;;;34.65;;
37495;SDS011;23346;52.088;4.746;2023-06-22T14:13:31;32.45;;;31.02;;
37495;SDS011;23346;52.088;4.746;2023-06-22T14:15:57;35.22;;;33.47;;
37495;SDS011;23346;52.088;4.746;2023-06-22T14:18:23;31.80;;;30.23;;